Time;durP1;ratioP1;P1;durP2;ratioP2;P2;SDS_P1;SDS_P2;PMS_P1;PMS_P2;Temp;Humidity;BMP_temperature;BMP_pressure;BME280_temperature;BME280_humidity;BME280_pressure;Samples;Min_cycle;Max_cycle;Signal;HPM_P1;HPM_P2
2021/05/23 00:00:41;;;;;;;2.98;1.60;;;;;;;14.20;69.13;97692.23;1649066;87;21405;-64
2021/05/23 00:03:15;;;;;;;2.83;1.70;;;;;;;14.18;69.33;97685.05;1648945;87;21096;-64
2021/05/23 00:05:44;;;;;;;3.10;1.90;;;;;;;14.11;72.65;97684.12;1649222;87;21070;-63
2021/05/23 00:08:18;;;;;;;2.77;1.65;;;;;;;14.05;71.60;97690.01;1649510;85;21092;-64
2021/05/23 00:10:50;;;;;;;4.30;1.90;;;;;;;14.00;71.05;97691.84;1621387;88;21091;-64
2021/05/23 00:13:25;;;;;;;7.58;2.30;;;;;;;13.95;71.18;97684.19;1621258;88;21213;-64
2021/05/23 00:16:03;;;;;;;3.27;1.60;;;;;;;13.86;74.29;97679.49;1620609;88;21127;-64
2021/05/23 00:18:34;;;;;;;3.87;1.85;;;;;;;13.79;73.55;97679.37;1621319;88;21115;-63
2021/05/23 00:21:03;;;;;;;4.45;1.80;;;;;;;13.76;73.24;97673.68;1621252;88;21122;-64
2021/05/23 00:23:30;;;;;;;6.75;2.47;;;;;;;13.73;75.09;97672.20;1621234;88;21090;-63
2021/05/23 00:25:58;;;;;;;4.22;1.92;;;;;;;13.70;76.25;97675.16;1621276;88;21138;-64
2021/05/23 00:28:25;;;;;;;5.37;1.87;;;;;;;13.68;76.82;97681.53;1621309;88;21095;-65
2021/05/23 00:30:52;;;;;;;2.62;1.57;;;;;;;13.65;76.78;97677.48;1621288;88;21083;-64
2021/05/23 00:33:21;;;;;;;2.47;1.72;;;;;;;13.62;75.67;97681.70;1621111;88;21456;-64
2021/05/23 00:35:48;;;;;;;3.40;1.80;;;;;;;13.59;76.15;97680.74;1621298;88;21599;-63
2021/05/23 00:38:16;;;;;;;3.12;1.82;;;;;;;13.58;75.26;97684.33;1602288;88;21255;-64
2021/05/23 00:40:44;;;;;;;3.40;2.00;;;;;;;13.56;76.06;97685.00;1620967;88;21112;-67
2021/05/23 00:43:15;;;;;;;3.00;1.80;;;;;;;13.51;76.53;97688.59;1621366;88;21583;-63
2021/05/23 00:45:42;;;;;;;3.12;1.57;;;;;;;13.44;76.55;97688.12;1621115;88;21111;-63
2021/05/23 00:48:09;;;;;;;1.87;1.65;;;;;;;13.37;76.22;97682.77;1621547;88;21099;-63
2021/05/23 00:50:37;;;;;;;3.02;1.80;;;;;;;13.35;75.49;97684.72;1621321;88;21091;-64
2021/05/23 00:53:06;;;;;;;4.75;2.25;;;;;;;13.33;75.76;97682.78;1621226;88;21143;-63
2021/05/23 00:55:36;;;;;;;4.05;2.10;;;;;;;13.31;75.59;97682.12;1621153;88;21102;-63
2021/05/23 00:58:03;;;;;;;2.87;2.02;;;;;;;13.28;76.92;97678.06;1621046;88;21160;-67
2021/05/23 01:00:45;;;;;;;3.05;1.67;;;;;;;13.25;76.37;97675.80;1621321;88;21079;-64
2021/05/23 01:03:33;;;;;;;2.67;1.85;;;;;;;13.25;77.09;97679.70;1621362;88;21082;-66
2021/05/23 01:06:08;;;;;;;3.33;1.62;;;;;;;13.27;77.09;97670.39;1621298;88;21135;-66
2021/05/23 01:08:38;;;;;;;2.10;1.60;;;;;;;13.28;77.46;97678.55;1624024;88;21091;-64
2021/05/23 01:11:18;;;;;;;4.72;2.02;;;;;;;13.30;77.31;97678.72;1629754;87;21020;-66
2021/05/23 01:13:59;;;;;;;2.83;1.47;;;;;;;13.32;77.59;97681.14;1602630;89;21107;-66
2021/05/23 01:16:55;;;;;;;2.22;1.45;;;;;;;13.36;77.44;97675.10;1629849;87;21042;-66
2021/05/23 01:19:54;;;;;;;2.85;1.85;;;;;;;13.41;76.57;97676.24;1636097;86;21100;-73
2021/05/23 01:22:43;;;;;;;3.15;1.65;;;;;;;13.44;76.38;97675.90;1636212;86;21080;-70
2021/05/23 01:25:32;;;;;;;4.28;1.50;;;;;;;13.51;76.63;97679.46;1635978;88;21144;-70
2021/05/23 01:28:00;;;;;;;1.65;1.20;;;;;;;13.55;76.10;97684.67;1641506;86;21070;-66
2021/05/23 01:30:30;;;;;;;3.77;1.42;;;;;;;13.64;75.69;97689.38;1630200;88;21197;-66
2021/05/23 01:33:00;;;;;;;1.92;1.42;;;;;;;13.71;75.56;97679.89;1643473;86;21089;-65
2021/05/23 01:35:37;;;;;;;2.90;1.27;;;;;;;13.73;76.40;97681.85;1629932;88;21063;-66
2021/05/23 01:38:14;;;;;;;1.40;1.15;;;;;;;13.75;76.24;97677.27;1641634;86;21098;-65
2021/05/23 01:40:42;;;;;;;1.95;1.20;;;;;;;13.76;76.33;97683.63;1629982;88;21051;-66
2021/05/23 01:43:10;;;;;;;2.50;1.20;;;;;;;13.80;75.65;97682.80;1641836;86;21594;-65
2021/05/23 01:45:39;;;;;;;2.12;1.10;;;;;;;13.85;76.17;97687.00;1630041;88;21070;-65
2021/05/23 01:48:27;;;;;;;0.85;0.80;;;;;;;13.89;75.87;97690.11;1641739;87;21101;-66
2021/05/23 01:50:54;;;;;;;1.45;0.98;;;;;;;13.87;75.78;97688.95;1672486;85;21081;-65
2021/05/23 01:53:22;;;;;;;3.62;1.05;;;;;;;13.87;75.88;97692.88;1672422;85;21406;-66
2021/05/23 01:55:50;;;;;;;1.30;0.90;;;;;;;13.87;75.71;97682.92;1672419;84;21577;-66
2021/05/23 01:58:17;;;;;;;1.15;0.90;;;;;;;13.89;75.39;97691.41;1672516;86;21578;-65
2021/05/23 02:00:47;;;;;;;1.82;1.00;;;;;;;13.94;75.12;97685.98;1672506;85;21311;-66
2021/05/23 02:03:16;;;;;;;1.05;0.75;;;;;;;13.94;75.42;97676.03;1672385;84;21561;-66
2021/05/23 02:05:53;;;;;;;2.52;0.90;;;;;;;13.93;75.59;97681.74;1672435;85;21038;-66
2021/05/23 02:08:23;;;;;;;1.42;1.00;;;;;;;13.91;75.23;97692.05;1672487;84;21061;-66
2021/05/23 02:10:53;;;;;;;2.90;1.25;;;;;;;13.89;75.45;97699.24;1672499;85;21584;-66
2021/05/23 02:13:21;;;;;;;0.78;0.55;;;;;;;13.86;75.58;97696.95;1672387;85;21093;-65
2021/05/23 02:15:48;;;;;;;1.60;0.90;;;;;;;13.86;75.87;97697.77;1672368;86;21100;-66
2021/05/23 02:18:15;;;;;;;1.47;0.95;;;;;;;13.85;75.74;97700.56;1672388;85;21514;-66
2021/05/23 02:20:46;;;;;;;2.10;1.00;;;;;;;13.75;76.49;97700.75;1672407;84;21122;-66
2021/05/23 02:23:21;;;;;;;1.27;0.90;;;;;;;13.71;77.10;97715.94;1672357;84;21042;-65
2021/05/23 02:25:48;;;;;;;1.52;1.22;;;;;;;13.69;76.84;97727.05;1672524;84;21090;-65
2021/05/23 02:28:16;;;;;;;3.08;1.10;;;;;;;13.64;77.46;97725.42;1672341;86;21082;-66
2021/05/23 02:30:51;;;;;;;1.67;1.15;;;;;;;13.59;77.33;97727.70;1672276;85;21065;-66
2021/05/23 02:33:20;;;;;;;1.80;1.20;;;;;;;13.52;78.33;97742.41;1672724;85;21607;-67
2021/05/23 02:35:51;;;;;;;0.80;0.70;;;;;;;13.51;78.42;97741.25;1672437;84;21077;-66
2021/05/23 02:38:19;;;;;;;1.90;1.07;;;;;;;13.46;78.79;97745.66;1672351;84;21117;-66
2021/05/23 02:40:49;;;;;;;1.92;0.82;;;;;;;13.47;78.64;97736.05;1672359;84;21561;-65
2021/05/23 02:43:19;;;;;;;1.77;0.90;;;;;;;13.46;79.13;97742.27;1672386;85;21074;-66
2021/05/23 02:45:46;;;;;;;1.20;0.80;;;;;;;13.45;78.79;97738.02;1672353;85;21042;-65
2021/05/23 02:48:14;;;;;;;1.90;1.17;;;;;;;13.44;77.76;97738.99;1672531;86;21064;-66
2021/05/23 02:50:46;;;;;;;2.58;1.20;;;;;;;13.46;77.26;97733.92;1672279;83;21149;-66
2021/05/23 02:53:14;;;;;;;1.12;1.02;;;;;;;13.48;76.79;97737.68;1672290;84;21652;-67
2021/05/23 02:55:45;;;;;;;1.57;1.00;;;;;;;13.49;76.41;97730.19;1672443;85;21057;-66
2021/05/23 02:58:14;;;;;;;1.80;1.40;;;;;;;13.48;76.67;97735.89;1672425;85;21077;-66
2021/05/23 03:00:43;;;;;;;5.05;1.10;;;;;;;13.49;76.74;97748.45;1672263;86;21058;-64
2021/05/23 03:03:11;;;;;;;1.87;1.20;;;;;;;13.48;76.29;97748.94;1672443;84;21637;-65
2021/05/23 03:05:39;;;;;;;2.90;1.20;;;;;;;13.49;75.94;97757.58;1672400;85;21604;-64
2021/05/23 03:08:07;;;;;;;1.60;1.05;;;;;;;13.48;77.03;97754.63;1672371;84;21148;-65
2021/05/23 03:10:38;;;;;;;1.47;1.07;;;;;;;13.44;77.68;97754.16;1672336;86;21113;-64
2021/05/23 03:13:08;;;;;;;3.65;1.17;;;;;;;13.42;77.61;97748.30;1672262;86;21112;-65
2021/05/23 03:15:37;;;;;;;5.25;1.45;;;;;;;13.42;76.59;97743.09;1672387;85;21082;-64
2021/05/23 03:18:05;;;;;;;1.52;0.90;;;;;;;13.43;76.97;97747.78;1672259;85;21061;-64
2021/05/23 03:20:34;;;;;;;1.40;1.10;;;;;;;13.41;76.98;97740.14;1672365;85;21118;-64
2021/05/23 03:23:02;;;;;;;1.90;1.40;;;;;;;13.36;78.03;97737.70;1672389;85;21058;-64
2021/05/23 03:25:31;;;;;;;2.35;1.52;;;;;;;13.35;77.57;97742.09;1672432;85;21069;-64
2021/05/23 03:27:59;;;;;;;1.45;1.30;;;;;;;13.28;79.58;97751.56;1672511;84;21703;-65
2021/05/23 03:30:39;;;;;;;2.52;1.42;;;;;;;13.22;80.17;97758.75;1672344;85;21063;-64
2021/05/23 03:33:07;;;;;;;2.17;1.25;;;;;;;13.23;80.05;97768.18;1672387;85;21093;-65
2021/05/23 03:35:36;;;;;;;2.85;1.67;;;;;;;13.25;79.25;97755.81;1672257;84;21073;-64
2021/05/23 03:38:04;;;;;;;1.92;1.47;;;;;;;13.24;78.86;97755.48;1672227;85;21081;-65
2021/05/23 03:40:31;;;;;;;2.08;1.45;;;;;;;13.25;78.44;97749.29;1672214;85;21096;-64
2021/05/23 03:42:58;;;;;;;1.40;1.05;;;;;;;13.28;78.97;97739.34;1672350;84;21216;-64
2021/05/23 03:45:25;;;;;;;4.10;1.42;;;;;;;13.31;79.04;97745.52;1672176;85;21101;-65
2021/05/23 03:47:52;;;;;;;1.57;1.25;;;;;;;13.30;79.40;97758.27;1688386;81;21211;-64
2021/05/23 03:50:22;;;;;;;3.42;1.45;;;;;;;13.39;79.14;97776.48;1689054;84;21083;-64
2021/05/23 03:52:52;;;;;;;3.37;1.20;;;;;;;13.36;79.97;97785.46;1688954;85;21079;-64
2021/05/23 03:55:21;;;;;;;2.15;1.52;;;;;;;13.42;79.91;97781.39;1689114;85;21063;-67
2021/05/23 03:57:49;;;;;;;1.45;1.35;;;;;;;13.51;79.73;97785.60;1688916;84;21111;-64
2021/05/23 04:00:18;;;;;;;1.37;1.15;;;;;;;13.56;79.26;97780.71;1689046;84;21150;-64
2021/05/23 04:02:49;;;;;;;1.82;1.40;;;;;;;13.61;78.94;97788.87;1689068;84;21652;-64
2021/05/23 04:05:15;;;;;;;1.70;1.35;;;;;;;13.61;79.10;97792.78;1689166;84;21072;-64
2021/05/23 04:07:42;;;;;;;2.15;1.12;;;;;;;13.70;78.42;97787.36;1689108;84;21071;-68
2021/05/23 04:10:13;;;;;;;3.05;1.82;;;;;;;13.75;77.61;97783.77;1689017;84;21591;-64
2021/05/23 04:12:42;;;;;;;2.27;1.27;;;;;;;13.76;78.52;97798.46;1688891;85;21054;-64
2021/05/23 04:15:10;;;;;;;1.65;1.32;;;;;;;13.88;78.05;97797.61;1689111;84;21143;-64
2021/05/23 04:17:37;;;;;;;3.15;1.60;;;;;;;13.98;77.52;97809.16;1688999;84;21027;-64
2021/05/23 04:20:07;;;;;;;1.70;1.22;;;;;;;14.06;76.94;97802.61;1689264;85;21103;-64
2021/05/23 04:22:35;;;;;;;1.70;1.22;;;;;;;14.13;76.59;97800.95;1688422;84;21146;-64
2021/05/23 04:25:08;;;;;;;2.17;1.20;;;;;;;14.23;76.26;97795.05;1689091;84;21146;-64
2021/05/23 04:27:49;;;;;;;3.30;1.30;;;;;;;14.37;75.94;97798.77;1625391;87;21201;-64
2021/05/23 04:30:20;;;;;;;3.58;1.40;;;;;;;14.51;75.54;97796.23;1610303;89;21109;-64
2021/05/23 04:32:48;;;;;;;2.22;1.40;;;;;;;14.62;75.23;97792.45;1660011;86;21568;-64
2021/05/23 04:35:16;;;;;;;1.67;1.42;;;;;;;14.73;74.80;97791.56;1659896;85;21123;-64
2021/05/23 04:37:44;;;;;;;1.15;0.95;;;;;;;14.80;74.27;97787.75;1659985;86;21074;-65
2021/05/23 04:40:14;;;;;;;2.92;1.37;;;;;;;14.88;74.11;97777.73;1660023;86;21651;-67
2021/05/23 04:42:42;;;;;;;2.20;1.80;;;;;;;14.96;73.69;97784.22;1660415;86;21168;-66
2021/05/23 04:45:12;;;;;;;2.25;1.67;;;;;;;15.05;73.71;97786.61;1660379;85;21073;-64
2021/05/23 04:47:39;;;;;;;2.80;1.92;;;;;;;15.17;73.35;97790.41;1659968;85;21179;-65
2021/05/23 04:50:28;;;;;;;2.75;1.70;;;;;;;15.23;72.73;97786.30;1659487;85;21631;-67
2021/05/23 04:52:55;;;;;;;2.47;1.65;;;;;;;15.24;72.57;97780.58;1588112;88;21097;-64
2021/05/23 04:55:22;;;;;;;2.95;1.87;;;;;;;15.24;72.50;97776.65;1587927;88;21664;-64
2021/05/23 04:57:50;;;;;;;3.10;1.80;;;;;;;15.07;72.77;97780.70;1587911;89;21125;-64
2021/05/23 05:00:22;;;;;;;3.17;1.55;;;;;;;15.16;72.52;97779.66;1587916;88;21122;-66
2021/05/23 05:02:50;;;;;;;3.90;2.00;;;;;;;15.23;72.15;97784.98;1587944;89;21113;-66
2021/05/23 05:05:19;;;;;;;2.00;1.70;;;;;;;15.28;71.76;97781.36;1587929;89;21140;-66
2021/05/23 05:07:46;;;;;;;2.20;1.85;;;;;;;15.30;71.68;97783.78;1588024;89;21153;-66
2021/05/23 05:10:13;;;;;;;2.20;1.45;;;;;;;15.32;71.77;97782.63;1588188;89;21142;-66
2021/05/23 05:12:40;;;;;;;3.33;1.82;;;;;;;15.35;71.82;97780.97;1588005;89;21149;-66
2021/05/23 05:15:09;;;;;;;2.15;1.70;;;;;;;15.36;71.56;97787.02;1588083;89;21082;-66
2021/05/23 05:17:37;;;;;;;2.72;1.92;;;;;;;15.43;71.46;97790.05;1588094;89;21167;-66
2021/05/23 05:20:07;;;;;;;3.27;2.20;;;;;;;15.47;71.02;97790.51;1588187;89;21122;-66
2021/05/23 05:22:35;;;;;;;3.80;1.60;;;;;;;15.46;70.29;97792.31;1588204;89;21157;-67
2021/05/23 05:25:04;;;;;;;1.80;1.65;;;;;;;15.53;70.19;97779.34;1588165;88;21134;-65
2021/05/23 05:27:31;;;;;;;3.40;1.80;;;;;;;15.60;69.65;97778.45;1610627;87;21169;-65
2021/05/23 05:29:58;;;;;;;4.65;1.67;;;;;;;15.75;69.26;97778.98;1588153;89;21133;-67
2021/05/23 05:32:25;;;;;;;1.50;1.30;;;;;;;15.80;68.46;97772.70;1588175;89;21115;-67
2021/05/23 05:34:52;;;;;;;3.62;1.90;;;;;;;15.90;68.43;97782.42;1588189;88;21161;-68
2021/05/23 05:37:18;;;;;;;1.77;1.37;;;;;;;16.02;68.58;97788.34;1588193;88;21134;-68
2021/05/23 05:39:45;;;;;;;2.72;1.80;;;;;;;16.18;68.31;97795.20;1588151;89;21125;-65
2021/05/23 05:42:12;;;;;;;2.42;1.70;;;;;;;16.30;66.21;97791.10;1588181;88;21117;-63
2021/05/23 05:44:39;;;;;;;2.47;1.45;;;;;;;16.34;65.67;97792.36;1588213;89;21125;-63
2021/05/23 05:47:06;;;;;;;2.05;1.80;;;;;;;16.46;65.90;97796.14;1588090;89;21126;-65
2021/05/23 05:49:36;;;;;;;2.33;1.65;;;;;;;16.53;65.32;97794.44;1588108;89;21598;-65
2021/05/23 05:52:03;;;;;;;3.33;1.60;;;;;;;16.64;65.31;97787.11;1600720;88;21127;-65
2021/05/23 05:54:30;;;;;;;2.52;1.45;;;;;;;16.73;64.50;97786.02;1609557;88;21090;-67
2021/05/23 05:56:57;;;;;;;2.37;1.47;;;;;;;16.83;64.02;97784.70;1609659;88;21115;-67
2021/05/23 05:59:24;;;;;;;2.42;1.30;;;;;;;16.98;64.32;97787.27;1609926;88;21086;-67
2021/05/23 06:01:51;;;;;;;4.10;1.98;;;;;;;17.12;63.79;97777.72;1609574;88;21082;-67
2021/05/23 06:04:18;;;;;;;1.40;1.20;;;;;;;17.08;63.05;97769.39;1609565;88;21109;-64
2021/05/23 06:06:45;;;;;;;1.95;1.50;;;;;;;17.12;62.35;97775.09;1609679;88;21078;-65
2021/05/23 06:09:12;;;;;;;2.40;1.90;;;;;;;17.12;62.74;97772.47;1609563;88;21094;-64
2021/05/23 06:11:39;;;;;;;2.83;2.12;;;;;;;17.21;62.33;97768.70;1609228;88;21685;-64
2021/05/23 06:14:05;;;;;;;3.25;2.35;;;;;;;17.29;62.04;97766.76;1609528;88;21083;-65
2021/05/23 06:16:32;;;;;;;2.60;1.60;;;;;;;17.45;62.15;97757.80;1609548;88;21080;-67
2021/05/23 06:18:59;;;;;;;2.80;1.25;;;;;;;17.59;62.30;97765.31;1609481;88;21642;-64
2021/05/23 06:21:26;;;;;;;2.12;1.77;;;;;;;17.49;61.41;97763.80;1609642;88;21154;-65
2021/05/23 06:23:53;;;;;;;2.40;1.50;;;;;;;17.48;60.42;97762.66;1609598;88;21063;-65
2021/05/23 06:26:24;;;;;;;3.90;1.32;;;;;;;17.64;59.67;97764.22;1609563;88;21587;-65
2021/05/23 06:28:53;;;;;;;1.92;1.22;;;;;;;17.80;59.30;97770.48;1610029;88;21071;-65
2021/05/23 06:31:21;;;;;;;2.52;1.40;;;;;;;18.02;59.49;97775.97;1610035;88;21114;-67
2021/05/23 06:33:48;;;;;;;1.77;1.30;;;;;;;18.23;59.48;97778.52;1610037;88;21144;-65
2021/05/23 06:36:16;;;;;;;2.75;1.57;;;;;;;18.34;58.18;97775.32;1609897;88;21107;-69
2021/05/23 06:38:43;;;;;;;3.02;2.00;;;;;;;18.39;58.55;97772.11;1609528;88;21178;-67
2021/05/23 06:41:10;;;;;;;6.33;2.05;;;;;;;18.44;59.62;97763.14;1609502;88;21107;-67
2021/05/23 06:43:37;;;;;;;3.20;1.80;;;;;;;18.56;58.88;97766.04;1609472;88;21071;-67
2021/05/23 06:46:03;;;;;;;2.65;1.98;;;;;;;18.68;58.44;97761.80;1609491;88;21142;-68
2021/05/23 06:48:30;;;;;;;2.95;1.47;;;;;;;18.70;57.37;97758.48;1609216;88;21138;-68
2021/05/23 06:50:57;;;;;;;2.75;1.42;;;;;;;18.77;57.53;97754.05;1609447;87;21105;-67
2021/05/23 06:53:31;;;;;;;2.58;1.85;;;;;;;18.78;57.42;97752.54;1656848;81;21140;-67
2021/05/23 06:55:58;;;;;;;1.62;1.32;;;;;;;18.71;57.27;97746.96;1655344;85;21130;-67
2021/05/23 06:58:25;;;;;;;2.15;1.35;;;;;;;18.76;56.32;97755.86;1655267;85;21151;-67
2021/05/23 07:00:51;;;;;;;1.87;1.30;;;;;;;18.87;56.80;97755.80;1655242;86;21060;-67
2021/05/23 07:03:18;;;;;;;2.92;1.37;;;;;;;18.94;56.87;97760.06;1655333;85;21191;-68
2021/05/23 07:05:45;;;;;;;1.65;0.98;;;;;;;19.04;56.72;97749.12;1655350;86;21611;-68
2021/05/23 07:08:12;;;;;;;1.42;0.95;;;;;;;19.15;56.90;97751.66;1655337;85;21627;-67
2021/05/23 07:10:39;;;;;;;1.60;1.00;;;;;;;19.40;56.82;97754.00;1655427;85;22103;-67
2021/05/23 07:13:06;;;;;;;2.25;0.98;;;;;;;19.61;53.16;97763.02;1655460;85;21053;-67
2021/05/23 07:15:33;;;;;;;1.27;1.02;;;;;;;19.83;52.59;97749.11;1655267;85;21088;-67
2021/05/23 07:18:00;;;;;;;3.27;0.98;;;;;;;19.85;51.17;97743.93;1655330;86;21045;-67
2021/05/23 07:20:27;;;;;;;0.85;0.70;;;;;;;19.91;50.46;97734.41;1655238;85;21171;-67
2021/05/23 07:22:54;;;;;;;2.42;1.12;;;;;;;19.94;48.96;97740.57;1655408;85;21076;-67
2021/05/23 07:25:22;;;;;;;2.05;0.85;;;;;;;19.98;49.09;97745.73;1655307;85;21143;-67
2021/05/23 07:27:50;;;;;;;1.37;0.80;;;;;;;20.05;48.73;97735.97;1655536;85;21048;-67
2021/05/23 07:30:18;;;;;;;1.77;0.88;;;;;;;20.24;47.97;97734.27;1655386;85;21662;-65
2021/05/23 07:32:45;;;;;;;0.62;0.60;;;;;;;20.49;48.38;97737.05;1655582;85;21131;-65
2021/05/23 07:35:13;;;;;;;0.70;0.60;;;;;;;20.64;47.50;97738.89;1655857;85;21192;-66
2021/05/23 07:37:40;;;;;;;0.85;0.70;;;;;;;20.50;47.15;97732.89;1655724;85;21064;-65
2021/05/23 07:40:08;;;;;;;1.17;0.90;;;;;;;20.48;47.55;97740.69;1655588;85;21164;-65
2021/05/23 07:42:35;;;;;;;1.50;0.98;;;;;;;20.38;47.92;97742.48;1655435;85;21048;-65
2021/05/23 07:45:05;;;;;;;0.70;0.50;;;;;;;20.62;47.56;97737.77;1655423;86;21198;-65
2021/05/23 07:47:32;;;;;;;1.10;0.80;;;;;;;20.50;47.19;97736.84;1655470;85;21136;-65
2021/05/23 07:49:59;;;;;;;0.75;0.75;;;;;;;20.66;46.80;97742.14;1655273;85;21064;-65
2021/05/23 07:52:26;;;;;;;0.78;0.62;;;;;;;21.04;47.39;97738.94;1655142;85;21164;-65
2021/05/23 07:54:52;;;;;;;0.90;0.65;;;;;;;21.07;47.41;97737.19;1655433;85;21092;-65
2021/05/23 07:57:19;;;;;;;0.57;0.55;;;;;;;20.99;46.13;97725.56;1655219;85;21056;-66
2021/05/23 07:59:46;;;;;;;1.07;0.60;;;;;;;21.10;45.89;97726.19;1655162;85;21100;-66
2021/05/23 08:02:13;;;;;;;1.65;0.70;;;;;;;21.27;46.31;97731.28;1655414;86;21048;-66
2021/05/23 08:04:40;;;;;;;0.60;0.60;;;;;;;21.66;44.98;97718.22;1655332;85;21084;-65
2021/05/23 08:07:07;;;;;;;1.50;0.50;;;;;;;21.68;43.89;97714.83;1655356;85;21083;-66
2021/05/23 08:09:34;;;;;;;0.72;0.72;;;;;;;21.69;43.82;97711.67;1655359;85;21190;-64
2021/05/23 08:12:01;;;;;;;0.72;0.62;;;;;;;21.71;43.08;97706.45;1655209;86;21548;-66
2021/05/23 08:14:28;;;;;;;1.57;0.80;;;;;;;21.22;43.49;97706.53;1655207;86;21738;-68
2021/05/23 08:16:55;;;;;;;0.95;0.80;;;;;;;21.48;45.31;97701.00;1655256;86;21647;-67
2021/05/23 08:19:22;;;;;;;1.37;0.72;;;;;;;21.29;45.04;97698.03;1655212;86;21096;-67
2021/05/23 08:21:49;;;;;;;0.62;0.47;;;;;;;21.47;45.34;97680.91;1655245;85;21199;-68
2021/05/23 08:24:16;;;;;;;1.12;0.65;;;;;;;21.64;43.92;97699.63;1655403;85;21080;-65
2021/05/23 08:26:44;;;;;;;1.17;0.90;;;;;;;21.71;44.38;97701.71;1655191;86;21083;-65
2021/05/23 08:29:11;;;;;;;1.07;0.78;;;;;;;21.79;43.90;97700.88;1655290;86;21599;-66
2021/05/23 08:31:38;;;;;;;0.68;0.68;;;;;;;22.02;44.08;97708.17;1655318;85;21143;-65
2021/05/23 08:34:05;;;;;;;1.35;0.70;;;;;;;22.23;43.58;97701.63;1655348;87;21147;-65
2021/05/23 08:36:32;;;;;;;0.90;0.65;;;;;;;22.20;42.81;97699.44;1655238;85;21158;-66
2021/05/23 08:38:59;;;;;;;1.07;0.88;;;;;;;22.38;42.74;97701.23;1655249;85;21109;-65
2021/05/23 08:41:26;;;;;;;1.12;0.88;;;;;;;22.46;41.64;97705.70;1655335;85;21143;-65
2021/05/23 08:43:53;;;;;;;1.55;0.68;;;;;;;22.36;42.01;97705.95;1655352;86;21266;-65
2021/05/23 08:46:21;;;;;;;1.47;1.07;;;;;;;22.20;42.49;97706.86;1655306;85;21143;-66
2021/05/23 08:48:48;;;;;;;1.47;0.98;;;;;;;22.19;42.39;97702.59;1655226;86;21139;-64
2021/05/23 08:51:15;;;;;;;0.90;0.60;;;;;;;22.42;43.09;97695.27;1655331;85;21161;-64
2021/05/23 08:53:44;;;;;;;0.82;0.68;;;;;;;22.48;41.57;97684.32;1655131;86;21572;-65
2021/05/23 08:56:11;;;;;;;3.52;0.75;;;;;;;22.69;41.24;97683.83;1655282;86;21211;-63
2021/05/23 08:58:38;;;;;;;2.27;1.00;;;;;;;22.83;41.72;97681.30;1655317;85;21104;-64
2021/05/23 09:01:05;;;;;;;5.03;0.85;;;;;;;22.78;41.25;97681.67;1655290;85;21096;-65
2021/05/23 09:03:32;;;;;;;1.65;0.80;;;;;;;23.11;42.27;97673.48;1655190;85;21068;-65
2021/05/23 09:05:59;;;;;;;0.60;0.50;;;;;;;23.13;40.75;97663.48;1655284;85;21115;-64
2021/05/23 09:08:29;;;;;;;1.05;0.68;;;;;;;23.29;40.43;97654.04;1655301;86;21032;-65
2021/05/23 09:11:00;;;;;;;0.80;0.80;;;;;;;23.15;40.00;97660.07;1655279;85;21084;-66
2021/05/23 09:13:34;;;;;;;0.50;0.50;;;;;;;23.10;40.71;97657.84;1655310;85;21091;-65
2021/05/23 09:16:11;;;;;;;0.53;0.50;;;;;;;22.65;39.47;97654.33;1655328;86;21187;-65
2021/05/23 09:18:45;;;;;;;2.25;0.98;;;;;;;23.06;39.72;97650.88;1655312;86;21096;-66
2021/05/23 09:21:15;;;;;;;1.85;0.50;;;;;;;23.21;38.89;97650.92;1655218;85;21663;-66
2021/05/23 09:23:47;;;;;;;1.22;0.70;;;;;;;23.20;39.42;97648.80;1655238;85;21036;-64
2021/05/23 09:26:25;;;;;;;2.05;0.70;;;;;;;23.19;38.63;97640.55;1655352;86;21204;-65
2021/05/23 09:28:54;;;;;;;1.40;0.90;;;;;;;23.55;37.72;97643.50;1655279;86;21651;-65
2021/05/23 09:31:24;;;;;;;1.42;0.70;;;;;;;23.59;38.43;97632.20;1655230;85;21099;-65
2021/05/23 09:33:53;;;;;;;1.10;1.00;;;;;;;23.54;38.82;97632.09;1655115;85;21100;-66
2021/05/23 09:36:21;;;;;;;1.22;0.80;;;;;;;23.80;38.27;97630.79;1655222;87;21532;-65
2021/05/23 09:38:58;;;;;;;3.72;0.75;;;;;;;24.03;37.36;97630.72;1655311;85;21112;-65
2021/05/23 09:41:33;;;;;;;1.02;0.78;;;;;;;24.42;36.82;97630.92;1655324;85;21056;-65
2021/05/23 09:44:19;;;;;;;0.95;0.60;;;;;;;24.57;37.57;97616.07;1654927;86;21115;-65
2021/05/23 09:47:03;;;;;;;2.35;0.90;;;;;;;24.98;38.06;97614.08;1646528;86;21052;-65
2021/05/23 09:49:40;;;;;;;0.98;0.88;;;;;;;24.65;36.87;97612.73;1655249;85;21119;-65
2021/05/23 09:52:05;;;;;;;1.50;0.90;;;;;;;25.20;36.52;97610.98;1655539;86;21338;-65
2021/05/23 09:54:48;;;;;;;1.17;0.70;;;;;;;25.39;36.47;97612.83;1674440;84;21611;-67
2021/05/23 09:57:21;;;;;;;1.20;0.75;;;;;;;25.10;35.82;97612.69;1674268;84;21039;-65
2021/05/23 10:00:03;;;;;;;0.85;0.80;;;;;;;25.10;36.64;97604.16;1674509;84;21059;-63
2021/05/23 10:02:32;;;;;;;3.00;0.75;;;;;;;25.38;36.28;97595.26;1672610;84;21079;-65
2021/05/23 10:05:05;;;;;;;1.02;0.70;;;;;;;25.69;37.03;97599.95;1674246;84;21138;-66
2021/05/23 10:07:34;;;;;;;0.85;0.68;;;;;;;26.03;35.62;97597.16;1674339;84;21162;-67
2021/05/23 10:10:02;;;;;;;0.70;0.60;;;;;;;25.74;35.05;97590.70;1674336;84;21051;-64
2021/05/23 10:12:29;;;;;;;0.88;0.70;;;;;;;26.34;34.32;97595.11;1674440;84;21192;-65
2021/05/23 10:14:56;;;;;;;0.78;0.60;;;;;;;26.64;33.55;97590.57;1674253;83;21587;-66
2021/05/23 10:17:23;;;;;;;0.60;0.50;;;;;;;26.44;34.33;97593.34;1674337;84;21087;-64
2021/05/23 10:19:50;;;;;;;1.75;0.60;;;;;;;26.76;33.44;97585.87;1674359;84;21063;-65
2021/05/23 10:22:18;;;;;;;1.77;0.80;;;;;;;27.01;32.70;97580.75;1674327;83;21067;-64
2021/05/23 10:24:56;;;;;;;0.88;0.62;;;;;;;26.13;34.08;97590.08;1674353;83;21160;-65
2021/05/23 10:27:24;;;;;;;1.10;0.62;;;;;;;27.13;33.93;97584.55;1674208;84;21082;-66
2021/05/23 10:29:56;;;;;;;1.05;0.65;;;;;;;27.12;33.46;97581.64;1674391;83;21080;-66
2021/05/23 10:32:32;;;;;;;0.88;0.60;;;;;;;27.29;32.74;97574.25;1674396;84;21055;-66
2021/05/23 10:35:16;;;;;;;3.35;0.82;;;;;;;27.11;32.45;97586.69;1674301;83;21150;-65
2021/05/23 10:37:45;;;;;;;1.15;0.47;;;;;;;27.81;32.31;97583.59;1673589;84;21075;-66
2021/05/23 10:40:31;;;;;;;1.17;0.60;;;;;;;27.87;30.12;97578.53;1674131;84;21281;-66
2021/05/23 10:43:01;;;;;;;0.75;0.50;;;;;;;27.23;30.63;97584.63;1674291;84;21634;-66
2021/05/23 10:45:38;;;;;;;0.40;0.40;;;;;;;27.67;30.28;97585.13;1674346;84;21091;-65
2021/05/23 10:48:16;;;;;;;1.27;0.72;;;;;;;27.29;31.21;97576.92;1674346;84;21221;-66
2021/05/23 10:50:44;;;;;;;0.70;0.50;;;;;;;27.73;31.84;97579.56;1674263;84;21159;-64
2021/05/23 10:53:12;;;;;;;3.00;0.65;;;;;;;27.78;30.66;97576.12;1672115;84;21286;-66
2021/05/23 10:55:49;;;;;;;0.60;0.60;;;;;;;27.41;30.88;97572.19;1667718;85;21072;-66
2021/05/23 10:58:23;;;;;;;0.88;0.47;;;;;;;27.13;31.07;97573.89;1667342;84;21071;-65
2021/05/23 11:00:57;;;;;;;1.37;0.57;;;;;;;27.39;30.93;97569.77;1667269;85;21066;-66
2021/05/23 11:03:26;;;;;;;0.80;0.60;;;;;;;27.06;30.78;97566.12;1667716;85;21055;-65
2021/05/23 11:06:02;;;;;;;0.82;0.55;;;;;;;27.16;31.08;97561.41;1667585;85;21171;-65
2021/05/23 11:08:32;;;;;;;0.95;0.68;;;;;;;26.87;31.55;97556.42;1667827;85;21527;-64
2021/05/23 11:10:59;;;;;;;1.47;0.45;;;;;;;26.14;32.86;97554.95;1667748;84;21202;-65
2021/05/23 11:13:31;;;;;;;1.82;0.70;;;;;;;26.56;32.45;97550.56;1667631;85;21087;-66
2021/05/23 11:16:19;;;;;;;1.92;0.65;;;;;;;26.70;32.18;97543.73;1667690;85;21685;-66
2021/05/23 11:18:47;;;;;;;2.90;1.20;;;;;;;26.99;31.31;97528.25;1667619;85;21066;-65
2021/05/23 11:21:16;;;;;;;0.65;0.40;;;;;;;26.89;31.84;97526.84;1667651;85;21043;-65
2021/05/23 11:23:53;;;;;;;3.75;0.70;;;;;;;27.70;30.77;97519.27;1667578;85;21055;-66
2021/05/23 11:26:23;;;;;;;1.12;0.80;;;;;;;28.00;30.28;97517.19;1667740;85;21100;-66
2021/05/23 11:28:53;;;;;;;1.75;0.70;;;;;;;27.92;29.66;97513.70;1667702;85;21056;-66
2021/05/23 11:31:29;;;;;;;0.95;0.70;;;;;;;28.35;29.59;97503.89;1667596;85;21165;-67
2021/05/23 11:33:59;;;;;;;1.30;0.60;;;;;;;28.32;29.68;97496.42;1648122;85;21629;-66
2021/05/23 11:36:32;;;;;;;0.85;0.55;;;;;;;27.76;30.50;97495.52;1667613;85;21112;-66
2021/05/23 11:39:03;;;;;;;3.30;0.50;;;;;;;28.55;28.66;97496.41;1648557;84;21099;-66
2021/05/23 11:41:44;;;;;;;1.20;0.65;;;;;;;28.84;27.95;97495.31;1667593;84;21040;-65
2021/05/23 11:44:13;;;;;;;0.65;0.50;;;;;;;29.66;26.99;97494.23;1667520;84;21154;-67
2021/05/23 11:46:50;;;;;;;1.87;0.50;;;;;;;29.90;26.37;97492.24;1667665;85;21051;-64